createdAt,value
2018-08-23T00:00:46.552Z,94.20
2018-08-23T00:03:20.938Z,94.10
2018-08-23T00:05:54.326Z,94.00
2018-08-23T00:08:23.924Z,94.00
2018-08-23T00:10:54.114Z,94.20
2018-08-23T00:13:23.712Z,94.20
2018-08-23T00:15:54.965Z,94.10
2018-08-23T00:18:25.801Z,94.10
2018-08-23T00:20:55.341Z,94.00
2018-08-23T00:23:24.575Z,94.20
2018-08-23T00:25:53.886Z,94.40
2018-08-23T00:28:23.262Z,94.40
2018-08-23T00:30:52.689Z,94.30
2018-08-23T00:33:21.981Z,94.30
2018-08-23T00:35:51.334Z,94.30
2018-08-23T00:38:20.796Z,94.70
2018-08-23T00:40:50.042Z,94.30
2018-08-23T00:43:19.403Z,94.30
2018-08-23T00:45:48.727Z,95.60
2018-08-23T00:48:17.926Z,96.30
2018-08-23T00:50:49.217Z,96.70
2018-08-23T00:53:18.666Z,97.00
2018-08-23T00:55:48.086Z,97.20
2018-08-23T00:58:17.408Z,97.50
2018-08-23T01:00:51.665Z,97.70
2018-08-23T01:03:21.167Z,97.90
2018-08-23T01:05:50.449Z,97.70
2018-08-23T01:08:24.973Z,97.00
2018-08-23T01:10:54.329Z,96.70
2018-08-23T01:13:23.602Z,96.50
2018-08-23T01:15:52.851Z,97.00
2018-08-23T01:18:22.082Z,97.60
2018-08-23T01:20:52.424Z,97.90
2018-08-23T01:23:21.889Z,98.10
2018-08-23T01:25:51.766Z,98.60
2018-08-23T01:28:21.126Z,98.60
2018-08-23T01:30:50.696Z,98.20
2018-08-23T01:33:21.162Z,98.00
2018-08-23T01:35:51.461Z,98.70
2018-08-23T01:38:20.869Z,98.90
2018-08-23T01:40:53.112Z,99.20
2018-08-23T01:43:23.797Z,99.10
2018-08-23T01:45:53.001Z,99.00
2018-08-23T01:48:22.217Z,98.20
2018-08-23T01:50:51.421Z,99.00
2018-08-23T01:53:20.768Z,99.20
2018-08-23T01:55:50.297Z,99.40
2018-08-23T01:58:19.723Z,99.50
2018-08-23T02:00:56.933Z,99.70
2018-08-23T02:03:26.572Z,99.70
2018-08-23T02:05:56.002Z,99.70
2018-08-23T02:08:25.427Z,99.80
2018-08-23T02:10:54.841Z,99.80
2018-08-23T02:13:28.219Z,99.80
2018-08-23T02:15:58.923Z,99.60
2018-08-23T02:18:28.233Z,99.40
2018-08-23T02:21:02.656Z,98.80
2018-08-23T02:23:31.885Z,98.50
2018-08-23T02:26:01.190Z,98.20
2018-08-23T02:28:30.475Z,98.50
2018-08-23T02:30:59.992Z,99.30
2018-08-23T02:36:22.841Z,99.90
2018-08-23T02:39:09.093Z,99.90
2018-08-23T02:41:38.678Z,99.70
2018-08-23T02:44:08.009Z,99.90
2018-08-23T02:46:37.279Z,99.90
2018-08-23T02:49:06.674Z,99.90
2018-08-23T02:51:52.762Z,99.90
2018-08-23T02:54:22.265Z,99.90
2018-08-23T02:56:58.091Z,99.90
2018-08-23T02:59:27.986Z,99.90
2018-08-23T03:01:57.348Z,99.90
2018-08-23T03:04:28.451Z,99.90
2018-08-23T03:07:03.013Z,99.90
2018-08-23T03:09:34.345Z,99.90
2018-08-23T03:12:09.954Z,99.80
2018-08-23T03:14:39.723Z,99.40
2018-08-23T03:17:13.120Z,99.60
2018-08-23T03:20:17.144Z,99.30
2018-08-23T03:22:48.505Z,99.30
2018-08-23T03:25:22.065Z,99.60
2018-08-23T03:27:52.524Z,99.80
2018-08-23T03:30:22.339Z,99.50
2018-08-23T03:32:51.928Z,98.90
2018-08-23T03:35:21.345Z,98.70
2018-08-23T03:37:50.786Z,98.40
2018-08-23T03:40:20.191Z,98.30
2018-08-23T03:42:49.488Z,98.40
2018-08-23T03:45:23.805Z,98.10
2018-08-23T03:47:54.569Z,98.60
2018-08-23T03:50:23.950Z,98.30
2018-08-23T03:52:54.345Z,98.90
2018-08-23T03:55:24.791Z,99.30
2018-08-23T03:57:58.319Z,99.80
2018-08-23T04:00:32.790Z,99.90
2018-08-23T04:03:03.246Z,99.90
2018-08-23T04:05:32.828Z,99.90
2018-08-23T04:08:02.308Z,99.90
2018-08-23T04:10:31.650Z,99.90
2018-08-23T04:13:01.164Z,99.90
2018-08-23T04:15:32.413Z,99.90
2018-08-23T04:18:08.885Z,99.90
2018-08-23T04:20:52.845Z,99.90
2018-08-23T04:23:22.316Z,99.90
2018-08-23T04:25:51.850Z,99.70
2018-08-23T04:28:21.180Z,99.20
2018-08-23T04:30:50.546Z,99.20
2018-08-23T04:33:19.865Z,99.40
2018-08-23T04:35:49.321Z,99.20
2018-08-23T04:38:18.756Z,98.80
2018-08-23T04:40:55.911Z,98.60
2018-08-23T04:43:25.263Z,98.50
2018-08-23T04:45:54.489Z,98.30
2018-08-23T04:48:23.692Z,98.20
2018-08-23T04:50:53.009Z,98.10
2018-08-23T04:53:22.287Z,98.10
2018-08-23T04:55:51.567Z,98.10
2018-08-23T04:58:21.009Z,98.20
2018-08-23T05:00:50.394Z,98.10
2018-08-23T05:03:21.127Z,98.30
2018-08-23T05:05:50.563Z,98.60
2018-08-23T05:08:19.860Z,98.60
2018-08-23T05:10:49.217Z,98.60
2018-08-23T05:13:18.349Z,98.70
2018-08-23T05:15:47.648Z,98.60
2018-08-23T05:18:17.081Z,98.50
2018-08-23T05:20:46.279Z,98.40
2018-08-23T05:23:15.627Z,98.20
2018-08-23T05:25:44.953Z,98.30
2018-08-23T05:28:21.052Z,99.00
2018-08-23T05:30:50.517Z,99.70
2018-08-23T05:33:22.681Z,99.90
2018-08-23T05:35:52.173Z,99.90
2018-08-23T05:38:21.385Z,99.80
2018-08-23T05:40:58.783Z,99.90
2018-08-23T05:43:28.287Z,99.90
2018-08-23T05:45:57.702Z,99.90
2018-08-23T05:48:30.229Z,99.90
2018-08-23T05:51:01.515Z,99.90
2018-08-23T05:53:31.084Z,99.90
2018-08-23T05:56:01.192Z,99.90
2018-08-23T05:58:31.812Z,99.90
2018-08-23T06:01:01.953Z,99.90
2018-08-23T06:03:31.899Z,99.90
2018-08-23T06:06:01.189Z,99.90
2018-08-23T06:08:30.568Z,99.90
2018-08-23T06:11:06.059Z,99.90
2018-08-23T06:13:35.679Z,99.90
2018-08-23T06:16:05.116Z,99.90
2018-08-23T06:18:35.339Z,99.90
2018-08-23T06:21:04.797Z,99.90
2018-08-23T06:24:02.634Z,99.90
2018-08-23T06:26:45.491Z,99.90
2018-08-23T06:29:18.010Z,99.90
2018-08-23T06:32:00.466Z,99.90
2018-08-23T06:35:00.550Z,99.90
2018-08-23T06:37:30.368Z,99.90
2018-08-23T06:39:59.681Z,99.90
2018-08-23T06:43:13.388Z,99.90
2018-08-23T06:45:42.850Z,99.90
2018-08-23T06:48:12.246Z,99.90
2018-08-23T06:50:45.935Z,99.90
2018-08-23T06:53:15.351Z,99.90
2018-08-23T06:55:44.747Z,99.90
2018-08-23T06:58:14.162Z,99.90
2018-08-23T07:00:43.478Z,99.90
2018-08-23T07:03:12.823Z,99.90
2018-08-23T07:05:43.517Z,99.90
2018-08-23T07:08:12.787Z,99.90
2018-08-23T07:10:42.167Z,99.90
2018-08-23T07:13:11.719Z,99.90
2018-08-23T07:15:46.504Z,99.90
2018-08-23T07:18:20.817Z,99.90
2018-08-23T07:20:50.217Z,99.90
2018-08-23T07:23:37.747Z,99.80
2018-08-23T07:26:07.402Z,99.80
2018-08-23T07:28:39.805Z,99.10
2018-08-23T07:31:09.103Z,99.50
2018-08-23T07:33:38.449Z,98.80
2018-08-23T07:36:24.401Z,98.30
2018-08-23T07:38:53.828Z,98.20
2018-08-23T07:41:23.101Z,97.70
2018-08-23T07:43:52.487Z,97.60
2018-08-23T07:46:21.980Z,97.00
2018-08-23T07:48:51.204Z,97.00
2018-08-23T07:51:26.412Z,97.10
2018-08-23T07:53:57.714Z,96.80
2018-08-23T07:56:28.018Z,95.80
2018-08-23T07:58:58.235Z,95.20
2018-08-23T08:01:30.500Z,95.30
2018-08-23T08:04:00.380Z,95.00
2018-08-23T08:06:31.169Z,94.90
2018-08-23T08:09:01.243Z,94.30
2018-08-23T08:11:40.207Z,93.90
2018-08-23T08:14:15.294Z,94.00
2018-08-23T08:16:44.455Z,93.80
2018-08-23T08:19:13.792Z,94.00
2018-08-23T08:21:43.611Z,93.80
2018-08-23T08:24:12.977Z,93.50
2018-08-23T08:26:42.318Z,93.20
2018-08-23T08:29:12.439Z,93.40
2018-08-23T08:31:41.722Z,92.80
2018-08-23T08:34:11.138Z,93.10
2018-08-23T08:36:40.614Z,92.90
2018-08-23T08:39:10.664Z,92.50
2018-08-23T08:41:40.056Z,92.90
2018-08-23T08:44:09.529Z,92.40
2018-08-23T08:46:38.877Z,92.20
2018-08-23T08:49:08.078Z,92.10
2018-08-23T08:51:37.267Z,91.40
2018-08-23T08:54:06.619Z,91.30
2018-08-23T08:56:44.580Z,91.10
2018-08-23T08:59:13.877Z,91.00
2018-08-23T09:01:43.278Z,91.30
2018-08-23T09:04:16.481Z,90.60
2018-08-23T09:06:47.101Z,90.70
2018-08-23T09:09:32.451Z,90.60
2018-08-23T09:12:06.435Z,90.40
2018-08-23T09:14:36.398Z,90.00
2018-08-23T09:17:21.665Z,90.20
2018-08-23T09:20:00.782Z,88.40
2018-08-23T09:22:35.011Z,88.40
2018-08-23T09:25:05.341Z,87.90
2018-08-23T09:27:34.691Z,87.40
2018-08-23T09:30:04.083Z,87.20
2018-08-23T09:32:33.403Z,86.80
2018-08-23T09:35:03.842Z,87.20
2018-08-23T09:37:36.565Z,87.10
2018-08-23T09:40:06.630Z,86.20
2018-08-23T09:42:36.717Z,87.40
2018-08-23T09:45:15.206Z,85.30
2018-08-23T09:47:44.531Z,85.30
2018-08-23T09:50:13.964Z,84.50
2018-08-23T09:52:46.867Z,84.30
2018-08-23T09:55:17.987Z,84.20
2018-08-23T09:57:48.466Z,84.80
2018-08-23T10:00:22.838Z,85.90
2018-08-23T10:02:57.428Z,85.30
2018-08-23T10:05:31.826Z,85.70
2018-08-23T10:09:04.874Z,85.20
2018-08-23T10:12:43.173Z,85.30
2018-08-23T10:15:17.565Z,85.80
2018-08-23T10:17:51.962Z,85.60
2018-08-23T10:20:26.531Z,85.00
2018-08-23T10:23:03.209Z,85.70
2018-08-23T10:25:43.849Z,83.80
2018-08-23T10:28:14.292Z,83.80
2018-08-23T10:30:44.469Z,82.90
2018-08-23T10:33:13.789Z,82.80
2018-08-23T10:35:48.533Z,82.20
2018-08-23T10:38:19.212Z,81.00
2018-08-23T10:40:49.608Z,80.40
2018-08-23T10:43:23.917Z,79.80
2018-08-23T10:45:53.271Z,80.00
2018-08-23T10:48:22.618Z,79.80
2018-08-23T10:50:52.138Z,80.20
2018-08-23T10:53:21.576Z,80.40
2018-08-23T10:55:50.918Z,79.50
2018-08-23T10:58:20.301Z,79.00
2018-08-23T11:00:49.736Z,78.40
2018-08-23T11:03:19.268Z,79.50
2018-08-23T11:05:48.717Z,78.10
2018-08-23T11:08:21.366Z,76.60
2018-08-23T11:10:55.738Z,76.20
2018-08-23T11:13:30.153Z,76.40
2018-08-23T11:16:04.695Z,75.90
2018-08-23T11:18:39.126Z,74.60
2018-08-23T11:21:12.848Z,75.00
2018-08-23T11:23:42.544Z,75.50
2018-08-23T11:26:15.965Z,75.00
2018-08-23T11:28:45.255Z,75.90
2018-08-23T11:31:19.718Z,76.80
2018-08-23T11:33:49.191Z,76.20
2018-08-23T11:36:18.658Z,75.40
2018-08-23T11:38:47.985Z,75.70
2018-08-23T11:41:17.244Z,75.80
2018-08-23T11:43:46.608Z,74.70
2018-08-23T11:46:16.793Z,75.70
2018-08-23T11:48:46.899Z,74.60
2018-08-23T11:51:17.018Z,74.60
2018-08-23T11:53:46.636Z,75.10
2018-08-23T11:56:16.179Z,75.60
2018-08-23T11:58:45.672Z,76.00
2018-08-23T12:01:16.107Z,75.60
2018-08-23T12:03:45.898Z,76.40
2018-08-23T12:06:16.368Z,73.30
2018-08-23T12:08:45.954Z,73.40
2018-08-23T12:11:15.459Z,72.90
2018-08-23T12:13:47.136Z,73.40
2018-08-23T12:16:16.534Z,74.00
2018-08-23T12:18:45.946Z,72.90
2018-08-23T12:21:15.470Z,73.10
2018-08-23T12:23:44.860Z,73.00
2018-08-23T12:26:14.290Z,73.00
2018-08-23T12:28:48.641Z,73.60
2018-08-23T12:31:18.060Z,73.90
2018-08-23T12:33:47.402Z,72.60
2018-08-23T12:36:20.950Z,72.70
2018-08-23T12:38:55.481Z,73.50
2018-08-23T12:41:29.821Z,74.40
2018-08-23T12:43:59.187Z,74.00
2018-08-23T12:46:28.656Z,74.60
2018-08-23T12:48:58.501Z,74.30
2018-08-23T12:51:27.978Z,74.00
2018-08-23T12:53:57.286Z,75.20
2018-08-23T12:56:26.928Z,72.80
2018-08-23T12:58:56.278Z,72.90
2018-08-23T13:01:25.488Z,71.70
2018-08-23T13:03:54.838Z,72.10
2018-08-23T13:06:24.161Z,73.10
2018-08-23T13:08:54.134Z,72.80
2018-08-23T13:11:23.630Z,72.10
2018-08-23T13:13:53.532Z,71.80
2018-08-23T13:16:22.836Z,70.80
2018-08-23T13:18:52.392Z,71.60
2018-08-23T13:21:21.806Z,70.50
2018-08-23T13:23:51.126Z,70.20
2018-08-23T13:26:20.478Z,71.20
2018-08-23T13:28:50.081Z,71.00
2018-08-23T13:31:19.598Z,70.10
2018-08-23T13:33:48.946Z,69.30
2018-08-23T13:36:18.265Z,69.00
2018-08-23T13:38:47.430Z,69.00
2018-08-23T13:41:16.644Z,68.60
2018-08-23T13:43:45.959Z,68.70
2018-08-23T13:46:15.349Z,68.70
2018-08-23T13:48:44.743Z,68.80
2018-08-23T13:51:14.227Z,67.30
2018-08-23T13:53:43.639Z,67.70
2018-08-23T13:56:12.877Z,68.10
2018-08-23T13:58:42.246Z,69.30
2018-08-23T14:01:11.663Z,69.60
2018-08-23T14:03:41.047Z,69.80
2018-08-23T14:06:10.558Z,69.20
2018-08-23T14:08:39.917Z,68.70
2018-08-23T14:11:09.277Z,69.10
2018-08-23T14:13:38.787Z,68.70
2018-08-23T14:16:08.186Z,69.20
2018-08-23T14:18:37.552Z,69.50
2018-08-23T14:21:06.873Z,69.40
2018-08-23T14:23:36.304Z,68.40
2018-08-23T14:26:06.042Z,68.30
2018-08-23T14:28:35.745Z,68.20
2018-08-23T14:31:05.079Z,68.90
2018-08-23T14:33:34.305Z,68.90
2018-08-23T14:36:03.668Z,69.20
2018-08-23T14:38:32.982Z,70.20
2018-08-23T14:41:02.301Z,69.60
2018-08-23T14:43:31.671Z,68.90
2018-08-23T14:46:06.058Z,68.90
2018-08-23T14:48:35.430Z,67.70
2018-08-23T14:51:04.913Z,69.30
2018-08-23T14:53:34.449Z,69.00
2018-08-23T14:56:09.124Z,69.50
2018-08-23T14:58:38.517Z,69.10
2018-08-23T15:01:08.124Z,69.20
2018-08-23T15:03:37.558Z,70.40
2018-08-23T15:06:07.055Z,71.50
2018-08-23T15:08:36.525Z,71.70
2018-08-23T15:11:07.295Z,71.30
2018-08-23T15:13:36.650Z,71.80
2018-08-23T15:16:05.905Z,72.30
2018-08-23T15:18:35.217Z,72.60
2018-08-23T15:21:04.745Z,72.20
2018-08-23T15:23:34.153Z,72.70
2018-08-23T15:26:03.617Z,72.80
2018-08-23T15:28:32.878Z,72.40
2018-08-23T15:31:02.125Z,72.00
2018-08-23T15:33:31.393Z,72.50
2018-08-23T15:36:00.856Z,73.00
2018-08-23T15:38:30.367Z,72.50
2018-08-23T15:41:00.006Z,73.10
2018-08-23T15:43:29.377Z,73.50
2018-08-23T15:45:58.527Z,74.60
2018-08-23T15:48:28.402Z,73.80
2018-08-23T15:50:57.737Z,74.80
2018-08-23T15:53:26.925Z,74.90
2018-08-23T15:55:56.231Z,75.30
2018-08-23T15:58:25.613Z,76.00
2018-08-23T16:00:55.064Z,75.00
2018-08-23T16:03:24.688Z,75.70
2018-08-23T16:05:53.985Z,76.50
2018-08-23T16:08:23.256Z,76.90
2018-08-23T16:10:52.594Z,76.70
2018-08-23T16:13:22.009Z,76.80
2018-08-23T16:15:55.480Z,76.80
2018-08-23T16:18:29.970Z,77.50
2018-08-23T16:21:01.432Z,77.20
2018-08-23T16:23:30.930Z,76.70
2018-08-23T16:26:00.188Z,77.10
2018-08-23T16:28:29.568Z,77.70
2018-08-23T16:30:59.044Z,77.80
2018-08-23T16:33:28.359Z,78.00
2018-08-23T16:35:57.834Z,77.80
2018-08-23T16:38:28.766Z,78.80
2018-08-23T16:40:58.058Z,79.20
2018-08-23T16:43:27.280Z,80.90
2018-08-23T16:45:56.643Z,80.30
2018-08-23T16:48:25.856Z,80.60
2018-08-23T16:50:55.139Z,80.70
2018-08-23T16:53:24.464Z,80.60
2018-08-23T16:55:53.765Z,80.60
2018-08-23T16:58:23.064Z,80.70
2018-08-23T17:00:52.400Z,80.80
2018-08-23T17:03:21.775Z,81.10
2018-08-23T17:05:51.069Z,82.00
2018-08-23T17:08:20.491Z,82.20
2018-08-23T17:10:49.767Z,82.60
2018-08-23T17:13:26.133Z,82.80
2018-08-23T17:16:00.532Z,83.30
2018-08-23T17:18:30.076Z,83.40
2018-08-23T17:20:59.325Z,83.30
2018-08-23T17:23:28.684Z,83.70
2018-08-23T17:25:57.918Z,84.50
2018-08-23T17:28:27.110Z,84.20
2018-08-23T17:30:56.669Z,83.50
2018-08-23T17:33:25.976Z,83.70
2018-08-23T17:35:55.320Z,83.40
2018-08-23T17:38:24.758Z,84.20
2018-08-23T17:40:54.031Z,84.10
2018-08-23T17:43:23.490Z,83.80
2018-08-23T17:45:52.799Z,84.20
2018-08-23T17:48:22.461Z,84.50
2018-08-23T17:50:51.814Z,84.60
2018-08-23T17:53:21.298Z,84.50
2018-08-23T17:55:50.899Z,85.30
2018-08-23T17:58:20.267Z,84.60
2018-08-23T18:00:49.560Z,84.70
2018-08-23T18:03:18.974Z,85.00
2018-08-23T18:05:48.353Z,84.90
2018-08-23T18:08:17.924Z,85.20
2018-08-23T18:10:47.424Z,85.20
2018-08-23T18:13:16.884Z,85.50
2018-08-23T18:15:52.145Z,85.80
2018-08-23T18:18:21.383Z,86.10
2018-08-23T18:20:50.695Z,85.70
2018-08-23T18:23:20.046Z,86.00
2018-08-23T18:25:50.172Z,86.20
2018-08-23T18:28:19.564Z,86.50
2018-08-23T18:30:50.086Z,86.20
2018-08-23T18:33:19.531Z,86.50
2018-08-23T18:35:48.832Z,86.30
2018-08-23T18:38:18.324Z,86.30
2018-08-23T18:40:47.550Z,86.80
2018-08-23T18:43:16.842Z,86.50
2018-08-23T18:45:46.483Z,87.20
2018-08-23T18:48:15.737Z,87.20
2018-08-23T18:50:45.146Z,87.10
2018-08-23T18:53:14.457Z,87.00
2018-08-23T18:55:43.828Z,87.40
2018-08-23T18:58:13.194Z,87.30
2018-08-23T19:00:42.472Z,87.70
2018-08-23T19:03:13.532Z,87.70
2018-08-23T19:05:42.953Z,88.00
2018-08-23T19:08:12.428Z,88.40
2018-08-23T19:10:41.558Z,88.50
2018-08-23T19:13:11.180Z,89.00
2018-08-23T19:16:47.208Z,89.40
2018-08-23T19:19:16.894Z,89.50
2018-08-23T19:21:46.100Z,90.00
2018-08-23T19:24:15.548Z,90.00
2018-08-23T19:26:44.844Z,90.00
2018-08-23T19:29:14.188Z,90.10
2018-08-23T19:31:43.744Z,90.20
2018-08-23T19:34:13.100Z,90.60
2018-08-23T19:36:42.565Z,90.40
2018-08-23T19:39:13.082Z,90.30
2018-08-23T19:41:42.516Z,90.60
2018-08-23T19:44:11.686Z,90.40
2018-08-23T19:46:46.007Z,90.80
2018-08-23T19:49:20.309Z,90.60
2018-08-23T19:51:49.712Z,90.80
2018-08-23T19:54:19.116Z,90.80
2018-08-23T19:56:48.627Z,90.80
2018-08-23T19:59:18.040Z,91.00
2018-08-23T20:01:47.473Z,91.10
2018-08-23T20:04:17.779Z,91.10
2018-08-23T20:06:47.153Z,91.20
2018-08-23T20:09:16.448Z,91.20
2018-08-23T20:11:45.699Z,91.40
2018-08-23T20:14:15.015Z,91.50
2018-08-23T20:16:44.323Z,91.40
2018-08-23T20:19:14.137Z,91.60
2018-08-23T20:21:43.526Z,91.60
2018-08-23T20:24:12.899Z,91.60
2018-08-23T20:26:42.363Z,91.50
2018-08-23T20:29:11.731Z,91.50
2018-08-23T20:31:41.203Z,91.60
2018-08-23T20:34:10.439Z,92.10
2018-08-23T20:36:39.841Z,92.00
2018-08-23T20:39:13.044Z,91.80
2018-08-23T20:41:43.136Z,91.90
2018-08-23T20:44:12.574Z,91.90
2018-08-23T20:46:41.959Z,91.90
2018-08-23T20:49:11.534Z,91.90
2018-08-23T20:51:40.913Z,92.10
2018-08-23T20:54:10.266Z,92.20
2018-08-23T20:56:39.794Z,92.20
2018-08-23T20:59:09.021Z,92.50
2018-08-23T21:01:38.307Z,92.50
2018-08-23T21:04:07.719Z,92.30
2018-08-23T21:06:37.024Z,92.40
2018-08-23T21:09:09.360Z,92.50
2018-08-23T21:11:39.072Z,92.70
2018-08-23T21:14:09.122Z,92.80
2018-08-23T21:16:38.666Z,93.10
2018-08-23T21:19:08.129Z,92.90
2018-08-23T21:21:39.216Z,92.90
2018-08-23T21:24:08.407Z,92.90
2018-08-23T21:26:37.872Z,93.70
2018-08-23T21:29:07.314Z,93.20
2018-08-23T21:31:36.846Z,93.40
2018-08-23T21:34:06.326Z,93.40
2018-08-23T21:36:35.760Z,93.30
2018-08-23T21:39:06.649Z,93.40
2018-08-23T21:41:36.073Z,93.30
2018-08-23T21:44:05.606Z,93.20
2018-08-23T21:46:34.944Z,93.10
2018-08-23T21:49:04.202Z,92.90
2018-08-23T21:51:33.411Z,92.80
2018-08-23T21:54:02.913Z,93.10
2018-08-23T21:56:32.391Z,92.80
2018-08-23T21:59:01.921Z,92.70
2018-08-23T22:01:31.106Z,92.50
2018-08-23T22:04:00.556Z,92.30
2018-08-23T22:06:29.760Z,92.30
2018-08-23T22:08:59.023Z,92.30
2018-08-23T22:11:28.517Z,92.20
2018-08-23T22:13:57.929Z,92.20
2018-08-23T22:16:27.223Z,92.10
2018-08-23T22:18:56.552Z,92.00
2018-08-23T22:21:25.719Z,91.90
2018-08-23T22:23:55.047Z,91.90
2018-08-23T22:26:24.273Z,91.90
2018-08-23T22:28:53.462Z,91.90
2018-08-23T22:31:22.804Z,91.70
2018-08-23T22:33:51.990Z,91.60
2018-08-23T22:36:21.375Z,91.60
2018-08-23T22:38:50.797Z,91.60
2018-08-23T22:41:20.079Z,91.60
2018-08-23T22:43:49.364Z,91.60
2018-08-23T22:46:18.584Z,91.60
2018-08-23T22:48:47.897Z,92.20
2018-08-23T22:51:17.266Z,91.80
2018-08-23T22:53:46.501Z,92.00
2018-08-23T22:56:15.772Z,91.90
2018-08-23T22:58:45.087Z,91.90
2018-08-23T23:01:14.296Z,91.90
2018-08-23T23:03:48.704Z,92.00
2018-08-23T23:06:18.095Z,92.00
2018-08-23T23:08:47.410Z,92.10
2018-08-23T23:11:16.435Z,92.10
2018-08-23T23:13:45.751Z,91.80
2018-08-23T23:16:15.015Z,92.10
2018-08-23T23:18:44.116Z,92.10
2018-08-23T23:21:13.427Z,93.10
2018-08-23T23:23:43.114Z,93.90
2018-08-23T23:26:13.119Z,94.60
2018-08-23T23:28:42.384Z,95.60
2018-08-23T23:31:11.569Z,96.50
2018-08-23T23:33:40.661Z,97.00
2018-08-23T23:36:10.315Z,97.50
2018-08-23T23:38:39.551Z,97.40
2018-08-23T23:41:08.998Z,97.80
2018-08-23T23:43:38.241Z,98.10
2018-08-23T23:46:07.597Z,98.30
2018-08-23T23:48:36.943Z,98.40
2018-08-23T23:51:07.186Z,98.60
2018-08-23T23:53:36.656Z,99.00
2018-08-23T23:56:06.144Z,99.10
2018-08-23T23:58:35.335Z,99.40
